Terminal Aerodrome Forecast
Issued by NWS

Home | Current Version | Previous Version | Text Only | Print | Product List | Glossary On
Versions: 1 2 3 4 5 6 7 8 9 10 11 12 13
000
FTUS46 KLOX 181700
TAFOXR
TAF
KOXR 181731Z 1818/1918 VRB03KT P6SM SKC
     FM181900 27008KT P6SM SKC
     FM182200 26015G20KT P6SM SKC
     FM190200 27008KT P6SM SCT020
     FM190500 VRB03KT P6SM OVC020=

USA.gov is the U.S. government's official web portal to all federal, state and local government web resources and services.